sensor_id;sensor_type;location;lat;lon;timestamp;pressure;altitude;pressure_sealevel;temperature;humidity
50484;BME280;36409;52.168;20.878;2023-07-13T00:00:06;100048.75;;;17.63;68.58
50484;BME280;36409;52.168;20.878;2023-07-13T00:03:05;100055.97;;;17.59;68.45
50484;BME280;36409;52.168;20.878;2023-07-13T00:05:38;100047.35;;;17.56;68.65
50484;BME280;36409;52.168;20.878;2023-07-13T00:08:17;100043.22;;;17.50;68.54
50484;BME280;36409;52.168;20.878;2023-07-13T00:10:53;100055.62;;;17.48;69.00
50484;BME280;36409;52.168;20.878;2023-07-13T00:13:27;100046.05;;;17.45;68.69
50484;BME280;36409;52.168;20.878;2023-07-13T00:16:01;100042.48;;;17.47;69.02
50484;BME280;36409;52.168;20.878;2023-07-13T00:18:33;100042.44;;;17.48;68.92
50484;BME280;36409;52.168;20.878;2023-07-13T00:21:06;100042.35;;;17.50;69.14
50484;BME280;36409;52.168;20.878;2023-07-13T00:23:40;100038.92;;;17.48;69.47
50484;BME280;36409;52.168;20.878;2023-07-13T00:26:17;100052.20;;;17.46;69.50
50484;BME280;36409;52.168;20.878;2023-07-13T00:28:52;100044.20;;;17.48;69.05
50484;BME280;36409;52.168;20.878;2023-07-13T00:31:25;100043.28;;;17.49;69.51
50484;BME280;36409;52.168;20.878;2023-07-13T00:33:58;100047.77;;;17.47;69.23
50484;BME280;36409;52.168;20.878;2023-07-13T00:36:31;100042.66;;;17.43;69.18
50484;BME280;36409;52.168;20.878;2023-07-13T00:39:04;100041.78;;;17.43;69.52
50484;BME280;36409;52.168;20.878;2023-07-13T00:41:36;100039.28;;;17.40;69.23
50484;BME280;36409;52.168;20.878;2023-07-13T00:44:19;100042.02;;;17.38;69.40
50484;BME280;36409;52.168;20.878;2023-07-13T00:46:54;100029.75;;;17.37;69.76
50484;BME280;36409;52.168;20.878;2023-07-13T00:49:35;100028.91;;;17.37;69.32
50484;BME280;36409;52.168;20.878;2023-07-13T00:52:10;100024.61;;;17.34;69.85
50484;BME280;36409;52.168;20.878;2023-07-13T00:54:51;100027.25;;;17.34;69.62
50484;BME280;36409;52.168;20.878;2023-07-13T00:57:24;100027.25;;;17.34;70.11
50484;BME280;36409;52.168;20.878;2023-07-13T00:59:59;100031.77;;;17.32;70.01
50484;BME280;36409;52.168;20.878;2023-07-13T01:02:40;100038.89;;;17.30;69.83
50484;BME280;36409;52.168;20.878;2023-07-13T01:05:23;100045.09;;;17.29;70.01
50484;BME280;36409;52.168;20.878;2023-07-13T01:07:57;100039.03;;;17.27;69.81
50484;BME280;36409;52.168;20.878;2023-07-13T01:10:31;100045.23;;;17.26;69.89
50484;BME280;36409;52.168;20.878;2023-07-13T01:13:10;100052.30;;;17.25;70.31
50484;BME280;36409;52.168;20.878;2023-07-13T01:15:50;100051.38;;;17.26;69.93
50484;BME280;36409;52.168;20.878;2023-07-13T01:18:25;100052.22;;;17.27;70.04
50484;BME280;36409;52.168;20.878;2023-07-13T01:21:01;100045.17;;;17.27;70.00
50484;BME280;36409;52.168;20.878;2023-07-13T01:23:34;100045.23;;;17.26;70.27
50484;BME280;36409;52.168;20.878;2023-07-13T01:26:07;100044.30;;;17.27;70.41
50484;BME280;36409;52.168;20.878;2023-07-13T01:28:40;100054.02;;;17.26;70.65
50484;BME280;36409;52.168;20.878;2023-07-13T01:31:22;100061.92;;;17.26;69.98
50484;BME280;36409;52.168;20.878;2023-07-13T01:33:55;100065.41;;;17.27;70.27
50484;BME280;36409;52.168;20.878;2023-07-13T01:36:31;100066.33;;;17.26;70.22
50484;BME280;36409;52.168;20.878;2023-07-13T01:39:03;100067.25;;;17.25;70.65
50484;BME280;36409;52.168;20.878;2023-07-13T01:41:38;100073.31;;;17.27;70.37
50484;BME280;36409;52.168;20.878;2023-07-13T01:44:11;100067.11;;;17.28;70.35
50484;BME280;36409;52.168;20.878;2023-07-13T01:46:46;100068.83;;;17.29;70.64
50484;BME280;36409;52.168;20.878;2023-07-13T01:49:22;100066.33;;;17.26;70.63
50484;BME280;36409;52.168;20.878;2023-07-13T01:52:03;100063.77;;;17.24;70.38
50484;BME280;36409;52.168;20.878;2023-07-13T01:54:37;100061.13;;;17.24;70.75
50484;BME280;36409;52.168;20.878;2023-07-13T01:57:10;100064.61;;;17.25;70.94
50484;BME280;36409;52.168;20.878;2023-07-13T01:59:46;100063.77;;;17.24;70.88
50484;BME280;36409;52.168;20.878;2023-07-13T02:02:22;100062.06;;;17.23;70.61
50484;BME280;36409;52.168;20.878;2023-07-13T02:04:55;100070.05;;;17.22;71.08
50484;BME280;36409;52.168;20.878;2023-07-13T02:07:30;100074.37;;;17.23;70.66
50484;BME280;36409;52.168;20.878;2023-07-13T02:10:05;100083.16;;;17.23;70.80
50484;BME280;36409;52.168;20.878;2023-07-13T02:12:40;100079.64;;;17.23;70.74
50484;BME280;36409;52.168;20.878;2023-07-13T02:15:22;100080.66;;;17.20;70.77
50484;BME280;36409;52.168;20.878;2023-07-13T02:17:56;100079.02;;;17.18;71.06
50484;BME280;36409;52.168;20.878;2023-07-13T02:20:29;100068.55;;;17.16;70.93
50484;BME280;36409;52.168;20.878;2023-07-13T02:23:02;100078.15;;;17.17;70.84
50484;BME280;36409;52.168;20.878;2023-07-13T02:25:38;100075.46;;;17.19;71.04
50484;BME280;36409;52.168;20.878;2023-07-13T02:28:11;100084.30;;;17.18;70.88
50484;BME280;36409;52.168;20.878;2023-07-13T02:30:44;100085.92;;;17.20;71.00
50484;BME280;36409;52.168;20.878;2023-07-13T02:33:23;100081.44;;;17.22;71.31
50484;BME280;36409;52.168;20.878;2023-07-13T02:35:55;100077.87;;;17.23;71.07
50484;BME280;36409;52.168;20.878;2023-07-13T02:38:30;100079.64;;;17.23;71.04
50484;BME280;36409;52.168;20.878;2023-07-13T02:41:09;100077.97;;;17.22;71.07
50484;BME280;36409;52.168;20.878;2023-07-13T02:43:43;100077.17;;;17.20;70.89
50484;BME280;36409;52.168;20.878;2023-07-13T02:46:23;100070.19;;;17.19;71.53
50484;BME280;36409;52.168;20.878;2023-07-13T02:49:01;100078.15;;;17.17;71.54
50484;BME280;36409;52.168;20.878;2023-07-13T02:51:33;100072.03;;;17.17;71.36
50484;BME280;36409;52.168;20.878;2023-07-13T02:54:06;100073.83;;;17.16;71.21
50484;BME280;36409;52.168;20.878;2023-07-13T02:56:39;100068.69;;;17.13;71.13
50484;BME280;36409;52.168;20.878;2023-07-13T02:59:13;100074.89;;;17.12;71.12
50484;BME280;36409;52.168;20.878;2023-07-13T03:01:47;100072.25;;;17.12;71.17
50484;BME280;36409;52.168;20.878;2023-07-13T03:04:20;100072.17;;;17.13;71.54
50484;BME280;36409;52.168;20.878;2023-07-13T03:06:53;100076.47;;;17.16;71.92
50484;BME280;36409;52.168;20.878;2023-07-13T03:09:35;100082.45;;;17.20;71.96
50484;BME280;36409;52.168;20.878;2023-07-13T03:12:11;100075.46;;;17.19;71.61
50484;BME280;36409;52.168;20.878;2023-07-13T03:14:46;100084.37;;;17.16;71.37
50484;BME280;36409;52.168;20.878;2023-07-13T03:17:20;100070.32;;;17.16;71.82
50484;BME280;36409;52.168;20.878;2023-07-13T03:19:53;100070.41;;;17.14;71.92
50484;BME280;36409;52.168;20.878;2023-07-13T03:22:26;100067.81;;;17.12;71.35
50484;BME280;36409;52.168;20.878;2023-07-13T03:24:59;100062.62;;;17.11;72.09
50484;BME280;36409;52.168;20.878;2023-07-13T03:27:32;100061.00;;;17.08;71.40
50484;BME280;36409;52.168;20.878;2023-07-13T03:30:08;100054.84;;;17.08;71.34
50484;BME280;36409;52.168;20.878;2023-07-13T03:32:40;100055.64;;;17.10;71.58
50484;BME280;36409;52.168;20.878;2023-07-13T03:35:13;100054.63;;;17.12;71.59
50484;BME280;36409;52.168;20.878;2023-07-13T03:37:46;100057.14;;;17.16;71.64
50484;BME280;36409;52.168;20.878;2023-07-13T03:40:22;100045.53;;;17.20;71.86
50484;BME280;36409;52.168;20.878;2023-07-13T03:42:55;100048.88;;;17.23;71.97
50484;BME280;36409;52.168;20.878;2023-07-13T03:45:30;100054.94;;;17.25;71.66
50484;BME280;36409;52.168;20.878;2023-07-13T03:48:02;100053.84;;;17.29;71.57
50484;BME280;36409;52.168;20.878;2023-07-13T03:50:34;100058.90;;;17.34;72.04
50484;BME280;36409;52.168;20.878;2023-07-13T03:53:07;100057.00;;;17.38;71.74
50484;BME280;36409;52.168;20.878;2023-07-13T03:55:40;100049.70;;;17.43;71.91
50484;BME280;36409;52.168;20.878;2023-07-13T03:58:33;100047.63;;;17.50;71.93
50484;BME280;36409;52.168;20.878;2023-07-13T04:01:16;100045.55;;;17.56;71.67
50484;BME280;36409;52.168;20.878;2023-07-13T04:03:53;100053.94;;;17.65;72.07
50484;BME280;36409;52.168;20.878;2023-07-13T04:06:30;100053.48;;;17.74;71.67
50484;BME280;36409;52.168;20.878;2023-07-13T04:09:04;100058.16;;;17.86;71.90
50484;BME280;36409;52.168;20.878;2023-07-13T04:11:37;100066.05;;;18.05;71.84
50484;BME280;36409;52.168;20.878;2023-07-13T04:14:09;100066.25;;;18.53;71.93
50484;BME280;36409;52.168;20.878;2023-07-13T04:16:42;100068.83;;;19.22;72.09
50484;BME280;36409;52.168;20.878;2023-07-13T04:19:17;100074.36;;;20.43;71.39
50484;BME280;36409;52.168;20.878;2023-07-13T04:21:49;100075.81;;;21.48;70.51
50484;BME280;36409;52.168;20.878;2023-07-13T04:24:25;100080.94;;;21.66;70.69
50484;BME280;36409;52.168;20.878;2023-07-13T04:26:57;100090.98;;;21.46;70.94
50484;BME280;36409;52.168;20.878;2023-07-13T04:29:30;100090.64;;;21.38;70.53
50484;BME280;36409;52.168;20.878;2023-07-13T04:32:07;100088.68;;;21.27;70.45
50484;BME280;36409;52.168;20.878;2023-07-13T04:34:41;100088.69;;;21.12;70.12
50484;BME280;36409;52.168;20.878;2023-07-13T04:37:13;100088.70;;;20.98;70.48
50484;BME280;36409;52.168;20.878;2023-07-13T04:39:47;100090.50;;;20.83;69.78
50484;BME280;36409;52.168;20.878;2023-07-13T04:42:20;100091.40;;;20.67;70.34
50484;BME280;36409;52.168;20.878;2023-07-13T04:44:54;100095.66;;;20.56;69.62
50484;BME280;36409;52.168;20.878;2023-07-13T04:47:29;100100.58;;;20.47;70.10
50484;BME280;36409;52.168;20.878;2023-07-13T04:50:01;100097.34;;;20.42;70.07
50484;BME280;36409;52.168;20.878;2023-07-13T04:52:34;100095.80;;;20.38;69.93
50484;BME280;36409;52.168;20.878;2023-07-13T04:55:09;100099.42;;;20.37;70.20
50484;BME280;36409;52.168;20.878;2023-07-13T04:57:43;100103.86;;;20.36;69.98
50484;BME280;36409;52.168;20.878;2023-07-13T05:00:17;100090.50;;;20.38;70.08
50484;BME280;36409;52.168;20.878;2023-07-13T05:02:51;100101.80;;;20.42;70.20
50484;BME280;36409;52.168;20.878;2023-07-13T05:05:24;100113.06;;;20.45;70.13
50484;BME280;36409;52.168;20.878;2023-07-13T05:07:58;100119.48;;;20.41;70.17
50484;BME280;36409;52.168;20.878;2023-07-13T05:10:38;100123.28;;;20.37;70.07
50484;BME280;36409;52.168;20.878;2023-07-13T05:13:11;100123.34;;;20.35;70.02
50484;BME280;36409;52.168;20.878;2023-07-13T05:15:44;100127.61;;;20.38;70.62
50484;BME280;36409;52.168;20.878;2023-07-13T05:18:16;100128.37;;;20.40;70.35
50484;BME280;36409;52.168;20.878;2023-07-13T05:20:59;100134.61;;;20.39;70.21
50484;BME280;36409;52.168;20.878;2023-07-13T05:23:33;100134.61;;;20.39;70.13
50484;BME280;36409;52.168;20.878;2023-07-13T05:26:08;100149.50;;;20.42;70.43
50484;BME280;36409;52.168;20.878;2023-07-13T05:28:42;100150.59;;;20.68;69.90
50484;BME280;36409;52.168;20.878;2023-07-13T05:31:15;100151.95;;;20.75;69.99
50484;BME280;36409;52.168;20.878;2023-07-13T05:33:47;100152.16;;;20.87;69.96
50484;BME280;36409;52.168;20.878;2023-07-13T05:36:20;100157.20;;;21.20;69.98
50484;BME280;36409;52.168;20.878;2023-07-13T05:38:53;100145.05;;;22.14;69.42
50484;BME280;36409;52.168;20.878;2023-07-13T05:41:26;100152.10;;;23.20;68.79
50484;BME280;36409;52.168;20.878;2023-07-13T05:44:01;100143.41;;;24.52;67.66
50484;BME280;36409;52.168;20.878;2023-07-13T05:46:34;100157.28;;;24.33;67.51
50484;BME280;36409;52.168;20.878;2023-07-13T05:49:08;100161.00;;;24.19;67.92
50484;BME280;36409;52.168;20.878;2023-07-13T05:51:40;100148.19;;;24.00;67.40
50484;BME280;36409;52.168;20.878;2023-07-13T05:54:13;100153.64;;;23.86;66.96
50484;BME280;36409;52.168;20.878;2023-07-13T05:56:46;100152.95;;;23.71;67.68
50484;BME280;36409;52.168;20.878;2023-07-13T05:59:20;100147.77;;;23.56;67.73
50484;BME280;36409;52.168;20.878;2023-07-13T06:01:52;100145.11;;;23.56;67.24
50484;BME280;36409;52.168;20.878;2023-07-13T06:04:29;100140.94;;;23.65;66.94
50484;BME280;36409;52.168;20.878;2023-07-13T06:07:06;100126.20;;;23.72;67.24
50484;BME280;36409;52.168;20.878;2023-07-13T06:09:41;100131.43;;;23.74;67.25
50484;BME280;36409;52.168;20.878;2023-07-13T06:12:13;100132.83;;;23.67;66.84
50484;BME280;36409;52.168;20.878;2023-07-13T06:14:46;100136.36;;;23.67;66.74
50484;BME280;36409;52.168;20.878;2023-07-13T06:17:19;100139.72;;;24.06;66.44
50484;BME280;36409;52.168;20.878;2023-07-13T06:19:51;100131.00;;;24.40;66.09
50484;BME280;36409;52.168;20.878;2023-07-13T06:22:24;100126.14;;;26.89;63.75
50484;BME280;36409;52.168;20.878;2023-07-13T06:24:59;100129.68;;;27.31;63.54
50484;BME280;36409;52.168;20.878;2023-07-13T06:27:35;100128.90;;;27.09;63.49
50484;BME280;36409;52.168;20.878;2023-07-13T06:30:10;100121.45;;;26.81;63.28
50484;BME280;36409;52.168;20.878;2023-07-13T06:32:43;100131.70;;;26.55;63.19
50484;BME280;36409;52.168;20.878;2023-07-13T06:35:17;100130.91;;;26.22;62.90
50484;BME280;36409;52.168;20.878;2023-07-13T06:37:50;100131.67;;;26.01;62.75
50484;BME280;36409;52.168;20.878;2023-07-13T06:40:23;100130.53;;;25.83;63.12
50484;BME280;36409;52.168;20.878;2023-07-13T06:42:55;100122.77;;;25.80;62.85
50484;BME280;36409;52.168;20.878;2023-07-13T06:45:32;100123.07;;;25.65;62.54
50484;BME280;36409;52.168;20.878;2023-07-13T06:48:05;100117.00;;;25.63;62.76
50484;BME280;36409;52.168;20.878;2023-07-13T06:50:41;100121.23;;;25.66;62.70
50484;BME280;36409;52.168;20.878;2023-07-13T06:53:15;100128.06;;;25.58;62.58
50484;BME280;36409;52.168;20.878;2023-07-13T06:55:48;100129.65;;;25.50;62.49
50484;BME280;36409;52.168;20.878;2023-07-13T06:58:21;100122.61;;;25.49;61.97
50484;BME280;36409;52.168;20.878;2023-07-13T07:00:54;100115.80;;;25.44;62.24
50484;BME280;36409;52.168;20.878;2023-07-13T07:03:27;100112.44;;;25.42;61.80
50484;BME280;36409;52.168;20.878;2023-07-13T07:06:06;100110.11;;;25.38;61.86
50484;BME280;36409;52.168;20.878;2023-07-13T07:08:45;100110.22;;;25.48;61.69
50484;BME280;36409;52.168;20.878;2023-07-13T07:11:20;100110.81;;;25.51;60.97
50484;BME280;36409;52.168;20.878;2023-07-13T07:13:55;100108.14;;;25.95;60.00
50484;BME280;36409;52.168;20.878;2023-07-13T07:16:28;100114.72;;;26.87;58.60
50484;BME280;36409;52.168;20.878;2023-07-13T07:19:01;100116.84;;;27.24;57.78
50484;BME280;36409;52.168;20.878;2023-07-13T07:21:33;100123.97;;;27.14;57.52
50484;BME280;36409;52.168;20.878;2023-07-13T07:24:07;100123.90;;;26.94;57.77
50484;BME280;36409;52.168;20.878;2023-07-13T07:26:39;100126.23;;;26.78;57.11
50484;BME280;36409;52.168;20.878;2023-07-13T07:29:15;100128.48;;;26.61;56.47
50484;BME280;36409;52.168;20.878;2023-07-13T07:31:50;100128.23;;;26.43;56.32
50484;BME280;36409;52.168;20.878;2023-07-13T07:34:38;100126.01;;;26.27;56.24
50484;BME280;36409;52.168;20.878;2023-07-13T07:37:13;100128.94;;;26.24;56.56
50484;BME280;36409;52.168;20.878;2023-07-13T07:39:49;100131.11;;;26.30;56.64
50484;BME280;36409;52.168;20.878;2023-07-13T07:42:42;100121.24;;;26.31;56.68
50484;BME280;36409;52.168;20.878;2023-07-13T07:45:15;100120.22;;;26.22;56.60
50484;BME280;36409;52.168;20.878;2023-07-13T07:47:51;100115.56;;;26.24;56.27
50484;BME280;36409;52.168;20.878;2023-07-13T07:50:27;100121.64;;;26.26;55.95
50484;BME280;36409;52.168;20.878;2023-07-13T07:52:59;100122.50;;;26.27;55.98
50484;BME280;36409;52.168;20.878;2023-07-13T07:55:32;100125.03;;;26.28;55.41
50484;BME280;36409;52.168;20.878;2023-07-13T07:58:08;100132.86;;;26.20;55.41
50484;BME280;36409;52.168;20.878;2023-07-13T08:01:05;100131.25;;;26.29;55.39
50484;BME280;36409;52.168;20.878;2023-07-13T08:03:41;100130.12;;;26.31;55.01
50484;BME280;36409;52.168;20.878;2023-07-13T08:06:16;100128.83;;;26.26;55.27
50484;BME280;36409;52.168;20.878;2023-07-13T08:08:56;100127.31;;;26.33;55.13
50484;BME280;36409;52.168;20.878;2023-07-13T08:11:30;100121.86;;;26.34;54.38
50484;BME280;36409;52.168;20.878;2023-07-13T08:14:05;100115.50;;;26.35;54.37
50484;BME280;36409;52.168;20.878;2023-07-13T08:16:38;100123.34;;;26.48;53.99
50484;BME280;36409;52.168;20.878;2023-07-13T08:19:10;100126.93;;;26.59;54.19
50484;BME280;36409;52.168;20.878;2023-07-13T08:21:43;100122.98;;;26.63;53.69
50484;BME280;36409;52.168;20.878;2023-07-13T08:24:15;100112.84;;;26.78;53.58
50484;BME280;36409;52.168;20.878;2023-07-13T08:26:49;100112.88;;;26.88;53.66
50484;BME280;36409;52.168;20.878;2023-07-13T08:29:22;100117.62;;;27.05;53.75
50484;BME280;36409;52.168;20.878;2023-07-13T08:32:11;100114.42;;;27.21;53.21
50484;BME280;36409;52.168;20.878;2023-07-13T08:34:45;100112.77;;;27.30;53.04
50484;BME280;36409;52.168;20.878;2023-07-13T08:37:18;100115.03;;;27.35;52.98
50484;BME280;36409;52.168;20.878;2023-07-13T08:39:51;100117.48;;;27.48;52.98
50484;BME280;36409;52.168;20.878;2023-07-13T08:42:33;100112.16;;;27.67;52.76
50484;BME280;36409;52.168;20.878;2023-07-13T08:45:17;100117.83;;;27.84;52.63
50484;BME280;36409;52.168;20.878;2023-07-13T08:47:57;100114.58;;;28.00;52.53
50484;BME280;36409;52.168;20.878;2023-07-13T08:50:34;100120.11;;;28.08;52.23
50484;BME280;36409;52.168;20.878;2023-07-13T08:53:33;100131.12;;;28.15;52.29
50484;BME280;36409;52.168;20.878;2023-07-13T08:56:20;100133.66;;;28.36;52.31
50484;BME280;36409;52.168;20.878;2023-07-13T08:58:58;100136.02;;;28.59;52.02
50484;BME280;36409;52.168;20.878;2023-07-13T09:01:43;100138.50;;;28.90;51.84
50484;BME280;36409;52.168;20.878;2023-07-13T09:04:21;100134.50;;;28.94;51.52
50484;BME280;36409;52.168;20.878;2023-07-13T09:07:03;100129.65;;;29.07;51.16
50484;BME280;36409;52.168;20.878;2023-07-13T09:09:50;100136.23;;;29.23;51.49
50484;BME280;36409;52.168;20.878;2023-07-13T09:12:35;100124.58;;;29.32;51.35
50484;BME280;36409;52.168;20.878;2023-07-13T09:15:23;100125.03;;;29.37;51.03
50484;BME280;36409;52.168;20.878;2023-07-13T09:18:00;100129.70;;;29.35;50.84
50484;BME280;36409;52.168;20.878;2023-07-13T09:20:36;100128.84;;;29.35;50.87
50484;BME280;36409;52.168;20.878;2023-07-13T09:23:17;100130.41;;;29.27;50.63
50484;BME280;36409;52.168;20.878;2023-07-13T09:25:54;100121.20;;;29.02;50.11
50484;BME280;36409;52.168;20.878;2023-07-13T09:28:37;100122.83;;;28.85;50.25
50484;BME280;36409;52.168;20.878;2023-07-13T09:31:16;100112.79;;;28.87;50.27
50484;BME280;36409;52.168;20.878;2023-07-13T09:33:51;100108.67;;;28.93;50.04
50484;BME280;36409;52.168;20.878;2023-07-13T09:36:27;100104.09;;;29.03;50.18
50484;BME280;36409;52.168;20.878;2023-07-13T09:39:04;100107.38;;;29.25;49.98
50484;BME280;36409;52.168;20.878;2023-07-13T09:41:46;100097.16;;;29.38;50.21
50484;BME280;36409;52.168;20.878;2023-07-13T09:44:29;100093.35;;;29.77;49.92
50484;BME280;36409;52.168;20.878;2023-07-13T09:47:17;100081.80;;;30.21;49.74
50484;BME280;36409;52.168;20.878;2023-07-13T09:49:56;100082.88;;;30.28;49.10
50484;BME280;36409;52.168;20.878;2023-07-13T09:52:43;100068.61;;;30.36;48.94
50484;BME280;36409;52.168;20.878;2023-07-13T09:55:31;100072.14;;;30.10;48.59
50484;BME280;36409;52.168;20.878;2023-07-13T09:58:10;100062.77;;;29.96;48.44
50484;BME280;36409;52.168;20.878;2023-07-13T10:00:54;100062.61;;;29.80;48.42
50484;BME280;36409;52.168;20.878;2023-07-13T10:03:29;100082.42;;;29.61;48.19
50484;BME280;36409;52.168;20.878;2023-07-13T10:06:14;100075.14;;;28.97;47.58
50484;BME280;36409;52.168;20.878;2023-07-13T10:08:48;100069.98;;;28.28;46.82
50484;BME280;36409;52.168;20.878;2023-07-13T10:11:24;100065.88;;;27.65;47.13
50484;BME280;36409;52.168;20.878;2023-07-13T10:14:00;100072.70;;;27.19;47.42
50484;BME280;36409;52.168;20.878;2023-07-13T10:16:35;100073.02;;;26.85;47.61
50484;BME280;36409;52.168;20.878;2023-07-13T10:19:13;100073.53;;;26.57;47.82
50484;BME280;36409;52.168;20.878;2023-07-13T10:21:52;100067.64;;;26.32;48.26
50484;BME280;36409;52.168;20.878;2023-07-13T10:24:39;100070.19;;;26.01;48.13
50484;BME280;36409;52.168;20.878;2023-07-13T10:27:17;100070.56;;;25.75;48.06
50484;BME280;36409;52.168;20.878;2023-07-13T10:29:59;100076.58;;;25.56;48.72
50484;BME280;36409;52.168;20.878;2023-07-13T10:32:33;100084.02;;;25.30;48.81
50484;BME280;36409;52.168;20.878;2023-07-13T10:35:09;100095.33;;;25.00;48.86
50484;BME280;36409;52.168;20.878;2023-07-13T10:37:49;100107.88;;;24.63;49.47
50484;BME280;36409;52.168;20.878;2023-07-13T10:40:28;100135.78;;;24.24;49.88
50484;BME280;36409;52.168;20.878;2023-07-13T10:43:04;100147.62;;;23.71;50.30
50484;BME280;36409;52.168;20.878;2023-07-13T10:45:38;100156.34;;;23.10;50.73
50484;BME280;36409;52.168;20.878;2023-07-13T10:48:10;100171.45;;;22.30;52.00
50484;BME280;36409;52.168;20.878;2023-07-13T10:50:49;100180.67;;;21.70;53.19
50484;BME280;36409;52.168;20.878;2023-07-13T10:53:30;100175.67;;;21.22;54.18
50484;BME280;36409;52.168;20.878;2023-07-13T10:56:04;100175.95;;;20.88;54.50
50484;BME280;36409;52.168;20.878;2023-07-13T10:58:40;100185.41;;;20.62;55.57
50484;BME280;36409;52.168;20.878;2023-07-13T11:01:14;100187.34;;;20.44;55.73
50484;BME280;36409;52.168;20.878;2023-07-13T11:03:54;100187.59;;;20.25;56.42
50484;BME280;36409;52.168;20.878;2023-07-13T11:06:36;100184.26;;;20.05;56.73
50484;BME280;36409;52.168;20.878;2023-07-13T11:09:37;100184.38;;;19.87;57.65
50484;BME280;36409;52.168;20.878;2023-07-13T11:12:29;100194.06;;;19.71;58.05
50484;BME280;36409;52.168;20.878;2023-07-13T11:15:32;100186.11;;;19.55;58.93
50484;BME280;36409;52.168;20.878;2023-07-13T11:18:12;100195.43;;;19.46;59.09
50484;BME280;36409;52.168;20.878;2023-07-13T11:20:52;100193.09;;;19.40;59.54
50484;BME280;36409;52.168;20.878;2023-07-13T11:24:13;100184.88;;;19.28;59.94
50484;BME280;36409;52.168;20.878;2023-07-13T11:26:53;100195.86;;;19.21;60.41
50484;BME280;36409;52.168;20.878;2023-07-13T11:29:37;100205.70;;;19.19;60.56
50484;BME280;36409;52.168;20.878;2023-07-13T11:32:26;100212.67;;;19.20;60.92
50484;BME280;36409;52.168;20.878;2023-07-13T11:35:02;100226.67;;;19.22;61.50
50484;BME280;36409;52.168;20.878;2023-07-13T11:37:34;100245.88;;;19.25;61.50
50484;BME280;36409;52.168;20.878;2023-07-13T11:40:14;100245.13;;;19.23;61.70
50484;BME280;36409;52.168;20.878;2023-07-13T11:42:50;100253.13;;;19.22;61.86
50484;BME280;36409;52.168;20.878;2023-07-13T11:45:23;100259.35;;;19.21;62.03
50484;BME280;36409;52.168;20.878;2023-07-13T11:48:27;100263.17;;;19.15;62.10
50484;BME280;36409;52.168;20.878;2023-07-13T11:51:03;100265.07;;;19.13;62.25
50484;BME280;36409;52.168;20.878;2023-07-13T11:53:43;100273.94;;;19.12;62.46
50484;BME280;36409;52.168;20.878;2023-07-13T11:56:17;100271.20;;;19.13;62.86
50484;BME280;36409;52.168;20.878;2023-07-13T11:58:53;100263.95;;;19.17;63.08
50484;BME280;36409;52.168;20.878;2023-07-13T12:01:30;100260.92;;;19.25;63.01
50484;BME280;36409;52.168;20.878;2023-07-13T12:04:05;100259.83;;;19.29;62.97
50484;BME280;36409;52.168;20.878;2023-07-13T12:06:39;100254.59;;;19.27;63.04
50484;BME280;36409;52.168;20.878;2023-07-13T12:09:15;100253.82;;;19.25;63.30
50484;BME280;36409;52.168;20.878;2023-07-13T12:11:46;100248.53;;;19.25;63.15
50484;BME280;36409;52.168;20.878;2023-07-13T12:14:19;100245.88;;;19.25;63.63
50484;BME280;36409;52.168;20.878;2023-07-13T12:16:55;100239.59;;;19.28;63.81
50484;BME280;36409;52.168;20.878;2023-07-13T12:19:33;100238.48;;;19.32;63.71
50484;BME280;36409;52.168;20.878;2023-07-13T12:22:08;100239.88;;;19.39;63.60
50484;BME280;36409;52.168;20.878;2023-07-13T12:24:44;100242.34;;;19.42;63.77
50484;BME280;36409;52.168;20.878;2023-07-13T12:27:18;100230.67;;;19.47;64.19
50484;BME280;36409;52.168;20.878;2023-07-13T12:30:02;100232.48;;;19.46;64.51
50484;BME280;36409;52.168;20.878;2023-07-13T12:32:36;100227.19;;;19.46;64.36
50484;BME280;36409;52.168;20.878;2023-07-13T12:35:16;100226.41;;;19.44;64.44
50484;BME280;36409;52.168;20.878;2023-07-13T12:37:53;100223.76;;;19.44;64.58
50484;BME280;36409;52.168;20.878;2023-07-13T12:40:31;100233.22;;;19.48;64.37
50484;BME280;36409;52.168;20.878;2023-07-13T12:43:12;100218.22;;;19.49;64.89
50484;BME280;36409;52.168;20.878;2023-07-13T12:46:01;100220.86;;;19.49;64.99
50484;BME280;36409;52.168;20.878;2023-07-13T12:48:42;100213.61;;;19.52;65.39
50484;BME280;36409;52.168;20.878;2023-07-13T12:51:26;100211.64;;;19.56;65.20
50484;BME280;36409;52.168;20.878;2023-07-13T12:54:13;100222.16;;;19.57;65.13
50484;BME280;36409;52.168;20.878;2023-07-13T12:56:50;100214.04;;;19.60;65.70
50484;BME280;36409;52.168;20.878;2023-07-13T12:59:29;100205.62;;;19.70;65.83
50484;BME280;36409;52.168;20.878;2023-07-13T13:02:22;100202.27;;;19.82;65.96
50484;BME280;36409;52.168;20.878;2023-07-13T13:05:02;100209.56;;;19.95;65.93
50484;BME280;36409;52.168;20.878;2023-07-13T13:07:36;100213.40;;;20.05;66.17
50484;BME280;36409;52.168;20.878;2023-07-13T13:10:14;100215.55;;;20.14;65.84
50484;BME280;36409;52.168;20.878;2023-07-13T13:12:47;100210.66;;;20.23;65.83
50484;BME280;36409;52.168;20.878;2023-07-13T13:15:18;100207.75;;;20.27;65.96
50484;BME280;36409;52.168;20.878;2023-07-13T13:17:53;100218.08;;;20.32;65.87
50484;BME280;36409;52.168;20.878;2023-07-13T13:20:28;100218.69;;;20.37;66.00
50484;BME280;36409;52.168;20.878;2023-07-13T13:23:01;100217.47;;;20.43;66.35
50484;BME280;36409;52.168;20.878;2023-07-13T13:25:32;100223.52;;;20.45;66.26
50484;BME280;36409;52.168;20.878;2023-07-13T13:28:08;100225.89;;;20.49;66.22